BON414 AT98-FACT
Flight info
| Callsign | BON414 |
|---|---|
| Flight time | 5h 23m |
| Altitude | 35000 |
| Route | 7122S00830E 70S010E DCT 60S014E 50S016E/N0460F370 40S018E DCT GEPAB DCT ASPIK ASPIK1B |
| Aircraft | A343/H-SDE2E3FGHIJ4J5M1RWXY/LB1D1 |
Departure
| Time | 2026-05-07 10:48 |
|---|---|
| Airport | (Duplicate)Wolf's Fang Runway (AT98) |
Arrival
| Time | 2026-05-07 16:12 |
|---|---|
| Airport | Cape Town International Airport (FACT) |
| Time | Latitude | Longitude | Altitude | Speed | Heading |
|---|---|---|---|---|---|
| 2026-05-07 10:42 | -71.53207 | 8.76868 | 3723 ft | 0 kts | 196° |
| 2026-05-07 10:45 | -71.53211 | 8.76864 | 3720 ft | 3 kts | 196° |
| 2026-05-07 10:46 | -71.53240 | 8.76796 | 3713 ft | 4 kts | 257° |
| 2026-05-07 10:46 | -71.53226 | 8.76656 | 3720 ft | 8 kts | 266° |
| 2026-05-07 10:46 | -71.53264 | 8.76605 | 3713 ft | 0 kts | 179° |
| 2026-05-07 10:47 | -71.53341 | 8.76612 | 3717 ft | 38 kts | 178° |
| 2026-05-07 10:48 | -71.53802 | 8.76723 | 3738 ft | 93 kts | 173° |
| 2026-05-07 10:48 | -71.54613 | 8.76977 | 3767 ft | 140 kts | 175° |
| 2026-05-07 10:48 | -71.55697 | 8.77290 | 3966 ft | 160 kts | 172° |
| 2026-05-07 10:48 | -71.56782 | 8.77540 | 4526 ft | 160 kts | 174° |
| 2026-05-07 10:49 | -71.57927 | 8.77676 | 4934 ft | 166 kts | 174° |
| 2026-05-07 10:49 | -71.59078 | 8.77816 | 5351 ft | 166 kts | 175° |
| 2026-05-07 10:49 | -71.60227 | 8.78004 | 5756 ft | 164 kts | 168° |
| 2026-05-07 10:49 | -71.61408 | 8.78429 | 5996 ft | 178 kts | 170° |
| 2026-05-07 10:50 | -71.62670 | 8.78872 | 6342 ft | 185 kts | 170° |
| 2026-05-07 10:50 | -71.63956 | 8.79323 | 6772 ft | 186 kts | 170° |
| 2026-05-07 10:50 | -71.65259 | 8.79774 | 7183 ft | 190 kts | 170° |
| 2026-05-07 10:50 | -71.66580 | 8.80261 | 7595 ft | 194 kts | 170° |
| 2026-05-07 10:51 | -71.67970 | 8.80498 | 7801 ft | 209 kts | 183° |
| 2026-05-07 10:51 | -71.69389 | 8.78865 | 7944 ft | 230 kts | 216° |
| 2026-05-07 10:51 | -71.70313 | 8.74508 | 8039 ft | 253 kts | 256° |
| 2026-05-07 10:51 | -71.70228 | 8.68833 | 8269 ft | 268 kts | 293° |
| 2026-05-07 10:52 | -71.69111 | 8.64195 | 8648 ft | 273 kts | 327° |
| 2026-05-07 10:52 | -71.67345 | 8.62148 | 9130 ft | 273 kts | 355° |
| 2026-05-07 10:52 | -71.65440 | 8.62036 | 9655 ft | 276 kts | 5° |
| 2026-05-07 10:52 | -71.63522 | 8.62411 | 10259 ft | 277 kts | 5° |
| 2026-05-07 10:53 | -71.61558 | 8.62588 | 10606 ft | 289 kts | 1° |
| 2026-05-07 10:53 | -71.59503 | 8.62314 | 10876 ft | 303 kts | 356° |
| 2026-05-07 10:53 | -71.57357 | 8.61576 | 11139 ft | 316 kts | 353° |
| 2026-05-07 10:53 | -71.55144 | 8.60499 | 11396 ft | 328 kts | 351° |
| 2026-05-07 10:54 | -71.52855 | 8.59212 | 11651 ft | 341 kts | 350° |
| 2026-05-07 10:54 | -71.50492 | 8.57819 | 12034 ft | 348 kts | 350° |
| 2026-05-07 10:54 | -71.48101 | 8.56415 | 12552 ft | 351 kts | 350° |
| 2026-05-07 10:54 | -71.45692 | 8.55022 | 13035 ft | 354 kts | 350° |
| 2026-05-07 10:55 | -71.43248 | 8.53632 | 13523 ft | 358 kts | 350° |
| 2026-05-07 10:55 | -71.40788 | 8.52278 | 14008 ft | 361 kts | 351° |
| 2026-05-07 10:55 | -71.38271 | 8.51569 | 14483 ft | 365 kts | 359° |
| 2026-05-07 10:55 | -71.35732 | 8.52104 | 14960 ft | 369 kts | 8° |
| 2026-05-07 10:56 | -71.33222 | 8.53892 | 15457 ft | 372 kts | 14° |
| 2026-05-07 10:56 | -71.30750 | 8.56380 | 15920 ft | 375 kts | 18° |
| 2026-05-07 10:56 | -71.28323 | 8.59216 | 16370 ft | 379 kts | 20° |
| 2026-05-07 10:56 | -71.25826 | 8.62290 | 16804 ft | 383 kts | 20° |
| 2026-05-07 10:57 | -71.23371 | 8.65326 | 17226 ft | 386 kts | 20° |
| 2026-05-07 10:57 | -71.20865 | 8.68375 | 17676 ft | 388 kts | 19° |
| 2026-05-07 10:57 | -71.18333 | 8.71385 | 18092 ft | 391 kts | 19° |
| 2026-05-07 10:57 | -71.15775 | 8.74380 | 18521 ft | 394 kts | 18° |
| 2026-05-07 10:58 | -71.13198 | 8.77361 | 18945 ft | 397 kts | 18° |
| 2026-05-07 10:58 | -71.10601 | 8.80344 | 19406 ft | 400 kts | 18° |
| 2026-05-07 10:58 | -71.07987 | 8.83341 | 19846 ft | 401 kts | 18° |
| 2026-05-07 10:58 | -71.05365 | 8.86324 | 20201 ft | 404 kts | 18° |
| 2026-05-07 10:59 | -71.02715 | 8.89330 | 20593 ft | 407 kts | 18° |
| 2026-05-07 10:59 | -71.00047 | 8.92353 | 20965 ft | 409 kts | 18° |
| 2026-05-07 10:59 | -70.97369 | 8.95382 | 21325 ft | 412 kts | 18° |
| 2026-05-07 10:59 | -70.94673 | 8.98428 | 21725 ft | 413 kts | 18° |
| 2026-05-07 11:00 | -70.91968 | 9.01476 | 22095 ft | 415 kts | 18° |
| 2026-05-07 11:00 | -70.89245 | 9.04536 | 22445 ft | 418 kts | 18° |
| 2026-05-07 11:00 | -70.86512 | 9.07597 | 22782 ft | 420 kts | 18° |
| 2026-05-07 11:00 | -70.83759 | 9.10670 | 23115 ft | 422 kts | 18° |
| 2026-05-07 11:01 | -70.80991 | 9.13749 | 23435 ft | 425 kts | 18° |
| 2026-05-07 11:01 | -70.78212 | 9.16832 | 23770 ft | 426 kts | 18° |
| 2026-05-07 11:01 | -70.75416 | 9.19924 | 24086 ft | 429 kts | 18° |
| 2026-05-07 11:01 | -70.72611 | 9.23017 | 24392 ft | 430 kts | 18° |
| 2026-05-07 11:02 | -70.69786 | 9.26123 | 24676 ft | 433 kts | 18° |
| 2026-05-07 11:02 | -70.66983 | 9.29197 | 24957 ft | 435 kts | 18° |
| 2026-05-07 11:02 | -70.64131 | 9.32314 | 25237 ft | 437 kts | 18° |
| 2026-05-07 11:02 | -70.61273 | 9.35427 | 25513 ft | 438 kts | 18° |
| 2026-05-07 11:03 | -70.58397 | 9.38550 | 25784 ft | 440 kts | 18° |
| 2026-05-07 11:03 | -70.55510 | 9.41676 | 26042 ft | 442 kts | 18° |
| 2026-05-07 11:03 | -70.52610 | 9.44806 | 26298 ft | 444 kts | 17° |
| 2026-05-07 11:03 | -70.49705 | 9.47933 | 26566 ft | 445 kts | 17° |
| 2026-05-07 11:04 | -70.46778 | 9.51074 | 26812 ft | 447 kts | 17° |
| 2026-05-07 11:04 | -70.43846 | 9.54211 | 27053 ft | 448 kts | 17° |
| 2026-05-07 11:04 | -70.40905 | 9.57350 | 27289 ft | 450 kts | 17° |
| 2026-05-07 11:04 | -70.37947 | 9.60494 | 27528 ft | 452 kts | 17° |
| 2026-05-07 11:05 | -70.34985 | 9.63634 | 27746 ft | 453 kts | 17° |
| 2026-05-07 11:05 | -70.32008 | 9.66778 | 27968 ft | 455 kts | 17° |
| 2026-05-07 11:05 | -70.29022 | 9.69924 | 28175 ft | 456 kts | 17° |
| 2026-05-07 11:05 | -70.26027 | 9.73070 | 28379 ft | 458 kts | 17° |
| 2026-05-07 11:06 | -70.23016 | 9.76221 | 28579 ft | 459 kts | 17° |
| 2026-05-07 11:06 | -70.19997 | 9.79372 | 28768 ft | 461 kts | 17° |
| 2026-05-07 11:06 | -70.16973 | 9.82519 | 28981 ft | 462 kts | 17° |
| 2026-05-07 11:06 | -70.13940 | 9.85666 | 29181 ft | 462 kts | 17° |
| 2026-05-07 11:07 | -70.10904 | 9.88806 | 29450 ft | 462 kts | 17° |
| 2026-05-07 11:07 | -70.07874 | 9.91932 | 29724 ft | 461 kts | 16° |
| 2026-05-07 11:07 | -70.04851 | 9.95040 | 29985 ft | 460 kts | 16° |
| 2026-05-07 11:07 | -70.01824 | 9.98125 | 30230 ft | 460 kts | 15° |
| 2026-05-07 11:08 | -69.98793 | 10.00577 | 30465 ft | 457 kts | 10° |
| 2026-05-07 11:08 | -69.95697 | 10.02610 | 30715 ft | 456 kts | 9° |
| 2026-05-07 11:08 | -69.92589 | 10.04498 | 30943 ft | 455 kts | 8° |
| 2026-05-07 11:08 | -69.89486 | 10.06304 | 31175 ft | 455 kts | 8° |
| 2026-05-07 11:09 | -69.86383 | 10.08079 | 31394 ft | 454 kts | 8° |
| 2026-05-07 11:09 | -69.83285 | 10.09846 | 31622 ft | 453 kts | 8° |
| 2026-05-07 11:09 | -69.80190 | 10.11617 | 31815 ft | 453 kts | 8° |
| 2026-05-07 11:09 | -69.77098 | 10.13392 | 31998 ft | 454 kts | 8° |
| 2026-05-07 11:10 | -69.73998 | 10.15175 | 32209 ft | 453 kts | 8° |
| 2026-05-07 11:10 | -69.70914 | 10.16950 | 32404 ft | 452 kts | 8° |
| 2026-05-07 11:10 | -69.67831 | 10.18722 | 32581 ft | 452 kts | 8° |
| 2026-05-07 11:10 | -69.64744 | 10.20490 | 32752 ft | 452 kts | 8° |
| 2026-05-07 11:11 | -69.61655 | 10.22253 | 32929 ft | 452 kts | 8° |
| 2026-05-07 11:11 | -69.58573 | 10.24007 | 33099 ft | 452 kts | 8° |
| 2026-05-07 11:11 | -69.55494 | 10.25753 | 33285 ft | 451 kts | 8° |
| 2026-05-07 11:11 | -69.52416 | 10.27493 | 33445 ft | 451 kts | 8° |
| 2026-05-07 11:12 | -69.49333 | 10.29233 | 33618 ft | 451 kts | 8° |
| 2026-05-07 11:12 | -69.46266 | 10.30959 | 33783 ft | 450 kts | 8° |
| 2026-05-07 11:12 | -69.43190 | 10.32683 | 33919 ft | 450 kts | 8° |
| 2026-05-07 11:12 | -69.40153 | 10.34379 | 34028 ft | 450 kts | 8° |
| 2026-05-07 11:13 | -69.37075 | 10.36092 | 34167 ft | 450 kts | 8° |
| 2026-05-07 11:13 | -69.33997 | 10.37800 | 34299 ft | 450 kts | 7° |
| 2026-05-07 11:13 | -69.30919 | 10.39506 | 34424 ft | 451 kts | 7° |
| 2026-05-07 11:13 | -69.27838 | 10.41207 | 34547 ft | 451 kts | 7° |
| 2026-05-07 11:14 | -69.24763 | 10.42901 | 34665 ft | 451 kts | 7° |
| 2026-05-07 11:14 | -69.21681 | 10.44594 | 34778 ft | 451 kts | 7° |
| 2026-05-07 11:14 | -69.18598 | 10.46283 | 34887 ft | 452 kts | 7° |
| 2026-05-07 11:14 | -69.15512 | 10.47968 | 35008 ft | 452 kts | 7° |
| 2026-05-07 11:15 | -69.09322 | 10.51331 | 35071 ft | 455 kts | 7° |
| 2026-05-07 11:15 | -69.03122 | 10.54681 | 35068 ft | 456 kts | 7° |
| 2026-05-07 11:16 | -68.96902 | 10.58029 | 35075 ft | 455 kts | 7° |
| 2026-05-07 11:16 | -68.90687 | 10.61351 | 35076 ft | 455 kts | 7° |
| 2026-05-07 11:17 | -68.84475 | 10.64651 | 35073 ft | 455 kts | 7° |
| 2026-05-07 11:17 | -68.78258 | 10.67932 | 35077 ft | 455 kts | 7° |
| 2026-05-07 11:18 | -68.72032 | 10.71204 | 35080 ft | 455 kts | 7° |
| 2026-05-07 11:18 | -68.65809 | 10.74453 | 35072 ft | 455 kts | 7° |
| 2026-05-07 11:19 | -68.59586 | 10.77689 | 35063 ft | 455 kts | 7° |
| 2026-05-07 11:19 | -68.53359 | 10.80904 | 35062 ft | 455 kts | 7° |
| 2026-05-07 11:20 | -68.47138 | 10.84099 | 35059 ft | 455 kts | 7° |
| 2026-05-07 11:20 | -68.40918 | 10.87276 | 35067 ft | 455 kts | 6° |
| 2026-05-07 11:21 | -68.34699 | 10.90435 | 35064 ft | 454 kts | 6° |
| 2026-05-07 11:21 | -68.28485 | 10.93573 | 35064 ft | 454 kts | 6° |
| 2026-05-07 11:22 | -68.22256 | 10.96702 | 35064 ft | 455 kts | 6° |
| 2026-05-07 11:22 | -68.16083 | 10.99786 | 35060 ft | 455 kts | 6° |
| 2026-05-07 11:23 | -68.09855 | 11.02881 | 35062 ft | 454 kts | 6° |
| 2026-05-07 11:23 | -68.03640 | 11.05955 | 35065 ft | 455 kts | 6° |
| 2026-05-07 11:24 | -67.97414 | 11.09010 | 35066 ft | 455 kts | 6° |
| 2026-05-07 11:24 | -67.91196 | 11.12045 | 35062 ft | 454 kts | 6° |
| 2026-05-07 11:25 | -67.84976 | 11.15068 | 35060 ft | 454 kts | 6° |
| 2026-05-07 11:25 | -67.78750 | 11.18080 | 35066 ft | 454 kts | 6° |
| 2026-05-07 11:26 | -67.72529 | 11.21068 | 35059 ft | 454 kts | 6° |
| 2026-05-07 11:26 | -67.66307 | 11.24043 | 35060 ft | 454 kts | 6° |
| 2026-05-07 11:27 | -67.60086 | 11.27003 | 35067 ft | 454 kts | 6° |
| 2026-05-07 11:27 | -67.53903 | 11.29929 | 35064 ft | 454 kts | 6° |
| 2026-05-07 11:28 | -67.47689 | 11.32854 | 35061 ft | 454 kts | 6° |
| 2026-05-07 11:28 | -67.41472 | 11.35764 | 35065 ft | 454 kts | 6° |
| 2026-05-07 11:29 | -67.35246 | 11.38663 | 35066 ft | 454 kts | 6° |
| 2026-05-07 11:29 | -67.29023 | 11.41545 | 35066 ft | 454 kts | 6° |
| 2026-05-07 11:30 | -67.23857 | 11.43927 | 35064 ft | 454 kts | 6° |
| 2026-05-07 11:30 | -67.16585 | 11.47260 | 35068 ft | 454 kts | 6° |
| 2026-05-07 11:31 | -67.11421 | 11.49614 | 35068 ft | 453 kts | 6° |
| 2026-05-07 11:31 | -67.05208 | 11.52435 | 35061 ft | 453 kts | 6° |
| 2026-05-07 11:32 | -66.95883 | 11.56641 | 35063 ft | 454 kts | 6° |
| 2026-05-07 11:33 | -66.89662 | 11.59428 | 35064 ft | 453 kts | 6° |
| 2026-05-07 11:33 | -66.83455 | 11.62197 | 35063 ft | 453 kts | 6° |
| 2026-05-07 11:34 | -66.77243 | 11.64954 | 35064 ft | 452 kts | 6° |
| 2026-05-07 11:34 | -66.71046 | 11.67688 | 35064 ft | 452 kts | 6° |
| 2026-05-07 11:35 | -66.64841 | 11.70409 | 35063 ft | 452 kts | 6° |
| 2026-05-07 11:35 | -66.58683 | 11.73099 | 35072 ft | 452 kts | 6° |
| 2026-05-07 11:36 | -66.52488 | 11.75792 | 35073 ft | 452 kts | 6° |
| 2026-05-07 11:36 | -66.46295 | 11.78470 | 35073 ft | 451 kts | 6° |
| 2026-05-07 11:37 | -66.40104 | 11.81132 | 35070 ft | 451 kts | 6° |
| 2026-05-07 11:37 | -66.33920 | 11.83782 | 35072 ft | 451 kts | 6° |
| 2026-05-07 11:38 | -66.27738 | 11.86416 | 35072 ft | 451 kts | 6° |
| 2026-05-07 11:38 | -66.21557 | 11.89034 | 35075 ft | 450 kts | 6° |
| 2026-05-07 11:39 | -66.15377 | 11.91640 | 35069 ft | 450 kts | 6° |
| 2026-05-07 11:39 | -66.09197 | 11.94234 | 35070 ft | 450 kts | 6° |
| 2026-05-07 11:40 | -66.03017 | 11.96813 | 35077 ft | 450 kts | 6° |
| 2026-05-07 11:40 | -65.96838 | 11.99381 | 35070 ft | 450 kts | 6° |
| 2026-05-07 11:41 | -65.90656 | 12.01939 | 35068 ft | 451 kts | 6° |
| 2026-05-07 11:41 | -65.84469 | 12.04484 | 35072 ft | 451 kts | 6° |
| 2026-05-07 11:42 | -65.78286 | 12.07015 | 35069 ft | 450 kts | 6° |
| 2026-05-07 11:42 | -65.72104 | 12.09532 | 35077 ft | 450 kts | 6° |
| 2026-05-07 11:43 | -65.65918 | 12.12038 | 35068 ft | 450 kts | 6° |
| 2026-05-07 11:43 | -65.59779 | 12.14517 | 35077 ft | 450 kts | 6° |
| 2026-05-07 11:44 | -65.53598 | 12.16999 | 35068 ft | 451 kts | 6° |
| 2026-05-07 11:44 | -65.47405 | 12.19476 | 35063 ft | 451 kts | 5° |
| 2026-05-07 11:45 | -65.41218 | 12.21936 | 35059 ft | 451 kts | 5° |
| 2026-05-07 11:45 | -65.35020 | 12.24389 | 35059 ft | 451 kts | 5° |
| 2026-05-07 11:46 | -65.28827 | 12.26829 | 35065 ft | 451 kts | 5° |
| 2026-05-07 11:46 | -65.22623 | 12.29263 | 35066 ft | 451 kts | 5° |
| 2026-05-07 11:47 | -65.16422 | 12.31680 | 35067 ft | 452 kts | 5° |
| 2026-05-07 11:47 | -65.10213 | 12.34090 | 35063 ft | 452 kts | 5° |
| 2026-05-07 11:48 | -65.04002 | 12.36490 | 35059 ft | 452 kts | 5° |
| 2026-05-07 11:48 | -64.97789 | 12.38881 | 35066 ft | 452 kts | 5° |
| 2026-05-07 11:49 | -64.91568 | 12.41264 | 35067 ft | 453 kts | 5° |
| 2026-05-07 11:49 | -64.85389 | 12.43621 | 35063 ft | 453 kts | 5° |
| 2026-05-07 11:50 | -64.79676 | 12.45786 | 35061 ft | 453 kts | 4° |
| 2026-05-07 11:50 | -64.73452 | 12.48138 | 35061 ft | 453 kts | 4° |
| 2026-05-07 11:51 | -64.67222 | 12.50482 | 35061 ft | 453 kts | 4° |
| 2026-05-07 11:51 | -64.60996 | 12.52815 | 35062 ft | 454 kts | 4° |
| 2026-05-07 11:52 | -64.54753 | 12.55138 | 35063 ft | 454 kts | 4° |
| 2026-05-07 11:52 | -64.48510 | 12.57452 | 35059 ft | 455 kts | 4° |
| 2026-05-07 11:53 | -64.42260 | 12.59759 | 35067 ft | 455 kts | 4° |
| 2026-05-07 11:53 | -64.36008 | 12.62054 | 35065 ft | 455 kts | 4° |
| 2026-05-07 11:54 | -64.29753 | 12.64342 | 35061 ft | 455 kts | 4° |
| 2026-05-07 11:54 | -64.23535 | 12.66603 | 35063 ft | 455 kts | 4° |
| 2026-05-07 11:55 | -64.17284 | 12.68867 | 35068 ft | 455 kts | 4° |
| 2026-05-07 11:55 | -64.11036 | 12.71124 | 35065 ft | 455 kts | 4° |
| 2026-05-07 11:56 | -64.04785 | 12.73370 | 35061 ft | 455 kts | 4° |
| 2026-05-07 11:56 | -63.98527 | 12.75606 | 35061 ft | 455 kts | 4° |
| 2026-05-07 11:57 | -63.92286 | 12.77829 | 35061 ft | 454 kts | 3° |
| 2026-05-07 11:57 | -63.86091 | 12.80022 | 35072 ft | 453 kts | 3° |
| 2026-05-07 11:58 | -63.79855 | 12.82220 | 35075 ft | 453 kts | 3° |
| 2026-05-07 11:58 | -63.73628 | 12.84408 | 35125 ft | 452 kts | 3° |
| 2026-05-07 11:59 | -63.67410 | 12.86580 | 35131 ft | 452 kts | 3° |
| 2026-05-07 11:59 | -63.61188 | 12.88745 | 35128 ft | 452 kts | 3° |
| 2026-05-07 12:00 | -63.54976 | 12.90897 | 35126 ft | 452 kts | 2° |
| 2026-05-07 12:00 | -63.48764 | 12.93040 | 35129 ft | 451 kts | 2° |
| 2026-05-07 12:01 | -63.42558 | 12.95170 | 35129 ft | 451 kts | 2° |
| 2026-05-07 12:01 | -63.36361 | 12.97288 | 35129 ft | 450 kts | 2° |
| 2026-05-07 12:02 | -63.30172 | 12.99396 | 35128 ft | 450 kts | 2° |
| 2026-05-07 12:02 | -63.24024 | 13.01482 | 35130 ft | 449 kts | 2° |
| 2026-05-07 12:03 | -63.17847 | 13.03567 | 35124 ft | 449 kts | 2° |
| 2026-05-07 12:03 | -63.11669 | 13.05643 | 35130 ft | 449 kts | 2° |
| 2026-05-07 12:04 | -63.05500 | 13.07708 | 35126 ft | 448 kts | 2° |
| 2026-05-07 12:04 | -62.99330 | 13.09762 | 35128 ft | 448 kts | 2° |
| 2026-05-07 12:05 | -62.93172 | 13.11804 | 35127 ft | 447 kts | 2° |
| 2026-05-07 12:05 | -62.87024 | 13.13834 | 35128 ft | 447 kts | 1° |
| 2026-05-07 12:06 | -62.80877 | 13.15856 | 35130 ft | 446 kts | 1° |
| 2026-05-07 12:06 | -62.74736 | 13.17866 | 35127 ft | 446 kts | 1° |
| 2026-05-07 12:07 | -62.68597 | 13.19869 | 35130 ft | 446 kts | 1° |
| 2026-05-07 12:07 | -62.62472 | 13.21859 | 35129 ft | 445 kts | 1° |
| 2026-05-07 12:08 | -62.56383 | 13.23829 | 35131 ft | 445 kts | 1° |
| 2026-05-07 12:08 | -62.50267 | 13.25800 | 35128 ft | 444 kts | 1° |
| 2026-05-07 12:09 | -62.44157 | 13.27761 | 35129 ft | 444 kts | 1° |
| 2026-05-07 12:09 | -62.38049 | 13.29711 | 35128 ft | 443 kts | 1° |
| 2026-05-07 12:10 | -62.31945 | 13.31652 | 35130 ft | 443 kts | 0° |
| 2026-05-07 12:10 | -62.25842 | 13.33588 | 35130 ft | 443 kts | 0° |
| 2026-05-07 12:11 | -62.19753 | 13.35509 | 35127 ft | 442 kts | 0° |
| 2026-05-07 12:11 | -62.13668 | 13.37420 | 35131 ft | 441 kts | 1° |
| 2026-05-07 12:12 | -62.07606 | 13.39320 | 35130 ft | 440 kts | 1° |
| 2026-05-07 12:12 | -62.01552 | 13.41205 | 35126 ft | 440 kts | 1° |
| 2026-05-07 12:13 | -61.95488 | 13.43088 | 35125 ft | 439 kts | 0° |
| 2026-05-07 12:13 | -61.89449 | 13.44957 | 35124 ft | 438 kts | 0° |
| 2026-05-07 12:14 | -61.83418 | 13.46813 | 35126 ft | 438 kts | 0° |
| 2026-05-07 12:14 | -61.77426 | 13.48651 | 35131 ft | 437 kts | 0° |
| 2026-05-07 12:15 | -61.71402 | 13.50492 | 35138 ft | 437 kts | 0° |
| 2026-05-07 12:15 | -61.65382 | 13.52323 | 35141 ft | 437 kts | 0° |
| 2026-05-07 12:16 | -61.59361 | 13.54146 | 35135 ft | 437 kts | 0° |
| 2026-05-07 12:16 | -61.53339 | 13.55966 | 35137 ft | 437 kts | 0° |
| 2026-05-07 12:17 | -61.47325 | 13.57776 | 35139 ft | 437 kts | 0° |
| 2026-05-07 12:17 | -61.42326 | 13.59275 | 35181 ft | 436 kts | 0° |
| 2026-05-07 12:18 | -61.36328 | 13.61068 | 35184 ft | 435 kts | 0° |
| 2026-05-07 12:18 | -61.30334 | 13.62852 | 35183 ft | 435 kts | 0° |
| 2026-05-07 12:19 | -61.24348 | 13.64625 | 35183 ft | 434 kts | 360° |
| 2026-05-07 12:19 | -61.18366 | 13.66392 | 35184 ft | 434 kts | 360° |
| 2026-05-07 12:20 | -61.12395 | 13.68147 | 35184 ft | 433 kts | 360° |
| 2026-05-07 12:20 | -61.06443 | 13.69892 | 35182 ft | 431 kts | 359° |
| 2026-05-07 12:21 | -61.00499 | 13.71627 | 35184 ft | 431 kts | 359° |
| 2026-05-07 12:21 | -60.94614 | 13.73338 | 35182 ft | 430 kts | 359° |
| 2026-05-07 12:22 | -60.88687 | 13.75052 | 35184 ft | 430 kts | 359° |
| 2026-05-07 12:22 | -60.82762 | 13.76762 | 35183 ft | 429 kts | 359° |
| 2026-05-07 12:23 | -60.76849 | 13.78466 | 35184 ft | 428 kts | 359° |
| 2026-05-07 12:23 | -60.70961 | 13.80154 | 35183 ft | 427 kts | 359° |
| 2026-05-07 12:24 | -60.65083 | 13.81831 | 35184 ft | 426 kts | 359° |
| 2026-05-07 12:24 | -60.59214 | 13.83498 | 35184 ft | 425 kts | 359° |
| 2026-05-07 12:25 | -60.53351 | 13.85156 | 35184 ft | 425 kts | 359° |
| 2026-05-07 12:25 | -60.47494 | 13.86814 | 35183 ft | 424 kts | 359° |
| 2026-05-07 12:26 | -60.41661 | 13.88458 | 35184 ft | 423 kts | 358° |
| 2026-05-07 12:26 | -60.35841 | 13.90086 | 35184 ft | 422 kts | 358° |
| 2026-05-07 12:27 | -60.30030 | 13.91708 | 35183 ft | 421 kts | 358° |
| 2026-05-07 12:27 | -60.24221 | 13.93322 | 35183 ft | 421 kts | 358° |
| 2026-05-07 12:28 | -60.18417 | 13.94929 | 35184 ft | 421 kts | 358° |
| 2026-05-07 12:28 | -60.12621 | 13.96531 | 35183 ft | 420 kts | 358° |
| 2026-05-07 12:29 | -60.06825 | 13.98127 | 35183 ft | 420 kts | 358° |
| 2026-05-07 12:29 | -60.01034 | 13.99715 | 35183 ft | 420 kts | 358° |
| 2026-05-07 12:30 | -59.95246 | 14.01265 | 35183 ft | 420 kts | 358° |
| 2026-05-07 12:30 | -59.89450 | 14.02744 | 35184 ft | 419 kts | 358° |
| 2026-05-07 12:31 | -59.83665 | 14.04213 | 35182 ft | 419 kts | 358° |
| 2026-05-07 12:31 | -59.77913 | 14.05679 | 35183 ft | 420 kts | 358° |
| 2026-05-07 12:32 | -59.72127 | 14.07154 | 35183 ft | 419 kts | 358° |
| 2026-05-07 12:32 | -59.66342 | 14.08625 | 35183 ft | 419 kts | 357° |
| 2026-05-07 12:33 | -59.57646 | 14.10824 | 35182 ft | 420 kts | 357° |
| 2026-05-07 12:33 | -59.51851 | 14.12282 | 35183 ft | 420 kts | 357° |
| 2026-05-07 12:34 | -59.46059 | 14.13739 | 35183 ft | 420 kts | 357° |
| 2026-05-07 12:34 | -59.40265 | 14.15190 | 35183 ft | 420 kts | 357° |
| 2026-05-07 12:35 | -59.34469 | 14.16635 | 35183 ft | 419 kts | 357° |
| 2026-05-07 12:35 | -59.28679 | 14.18072 | 35183 ft | 419 kts | 356° |
| 2026-05-07 12:36 | -59.22888 | 14.19504 | 35184 ft | 420 kts | 356° |
| 2026-05-07 12:36 | -59.17089 | 14.20936 | 35183 ft | 419 kts | 356° |
| 2026-05-07 12:37 | -59.11306 | 14.22357 | 35174 ft | 420 kts | 356° |
| 2026-05-07 12:37 | -59.05548 | 14.23768 | 35174 ft | 419 kts | 356° |
| 2026-05-07 12:38 | -58.99761 | 14.25183 | 35174 ft | 419 kts | 356° |
| 2026-05-07 12:38 | -58.93971 | 14.26591 | 35174 ft | 419 kts | 356° |
| 2026-05-07 12:39 | -58.88184 | 14.27996 | 35174 ft | 419 kts | 356° |
| 2026-05-07 12:39 | -58.82405 | 14.29394 | 35173 ft | 418 kts | 356° |
| 2026-05-07 12:40 | -58.76622 | 14.30786 | 35174 ft | 419 kts | 355° |
| 2026-05-07 12:40 | -58.70841 | 14.32175 | 35174 ft | 419 kts | 355° |
| 2026-05-07 12:41 | -58.65057 | 14.33559 | 35174 ft | 418 kts | 355° |
| 2026-05-07 12:41 | -58.59285 | 14.34936 | 35174 ft | 418 kts | 355° |
| 2026-05-07 12:42 | -58.53513 | 14.36308 | 35174 ft | 418 kts | 355° |
| 2026-05-07 12:42 | -58.47732 | 14.37679 | 35174 ft | 419 kts | 355° |
| 2026-05-07 12:43 | -58.41951 | 14.39044 | 35174 ft | 418 kts | 355° |
| 2026-05-07 12:43 | -58.36180 | 14.40404 | 35174 ft | 418 kts | 355° |
| 2026-05-07 12:44 | -58.30407 | 14.41757 | 35174 ft | 418 kts | 355° |
| 2026-05-07 12:44 | -58.24634 | 14.43107 | 35174 ft | 418 kts | 355° |
| 2026-05-07 12:45 | -58.18862 | 14.44455 | 35174 ft | 418 kts | 355° |
| 2026-05-07 12:45 | -58.13093 | 14.45796 | 35174 ft | 417 kts | 355° |
| 2026-05-07 12:46 | -58.07330 | 14.47130 | 35174 ft | 417 kts | 355° |
| 2026-05-07 12:46 | -58.01567 | 14.48460 | 35174 ft | 417 kts | 355° |
| 2026-05-07 12:47 | -57.95796 | 14.49786 | 35174 ft | 418 kts | 355° |
| 2026-05-07 12:47 | -57.90012 | 14.51109 | 35174 ft | 419 kts | 355° |
| 2026-05-07 12:48 | -57.84257 | 14.52424 | 35174 ft | 420 kts | 355° |
| 2026-05-07 12:48 | -57.78405 | 14.53755 | 35174 ft | 421 kts | 355° |
| 2026-05-07 12:49 | -57.72623 | 14.55071 | 35174 ft | 421 kts | 355° |
| 2026-05-07 12:49 | -57.66807 | 14.56393 | 35122 ft | 421 kts | 355° |
| 2026-05-07 12:50 | -57.60994 | 14.57705 | 35120 ft | 421 kts | 355° |
| 2026-05-07 12:50 | -57.55171 | 14.59012 | 35120 ft | 421 kts | 355° |
| 2026-05-07 12:51 | -57.49348 | 14.60317 | 35117 ft | 422 kts | 355° |
| 2026-05-07 12:51 | -57.43513 | 14.61622 | 35119 ft | 423 kts | 355° |
| 2026-05-07 12:52 | -57.37666 | 14.62922 | 35120 ft | 424 kts | 355° |
| 2026-05-07 12:52 | -57.31805 | 14.64225 | 35119 ft | 424 kts | 355° |
| 2026-05-07 12:53 | -57.25975 | 14.65514 | 35117 ft | 425 kts | 355° |
| 2026-05-07 12:53 | -57.20092 | 14.66812 | 35068 ft | 426 kts | 355° |
| 2026-05-07 12:54 | -57.14200 | 14.68108 | 35068 ft | 427 kts | 355° |
| 2026-05-07 12:54 | -57.08291 | 14.69402 | 35069 ft | 428 kts | 355° |
| 2026-05-07 12:55 | -57.02381 | 14.70695 | 35070 ft | 428 kts | 355° |
| 2026-05-07 12:55 | -56.96454 | 14.71986 | 35072 ft | 429 kts | 355° |
| 2026-05-07 12:56 | -56.90516 | 14.73274 | 35078 ft | 430 kts | 355° |
| 2026-05-07 12:56 | -56.84568 | 14.74563 | 35075 ft | 430 kts | 355° |
| 2026-05-07 12:57 | -56.78622 | 14.75848 | 35071 ft | 431 kts | 355° |
| 2026-05-07 12:57 | -56.72665 | 14.77129 | 35076 ft | 431 kts | 356° |
| 2026-05-07 12:58 | -56.66708 | 14.78405 | 35071 ft | 431 kts | 355° |
| 2026-05-07 12:58 | -56.60741 | 14.79680 | 35069 ft | 432 kts | 355° |
| 2026-05-07 12:59 | -56.54767 | 14.80951 | 35076 ft | 433 kts | 356° |
| 2026-05-07 12:59 | -56.48789 | 14.82222 | 35069 ft | 433 kts | 356° |
| 2026-05-07 13:00 | -56.42808 | 14.83490 | 35076 ft | 433 kts | 356° |
| 2026-05-07 13:00 | -56.36820 | 14.84754 | 35070 ft | 434 kts | 356° |
| 2026-05-07 13:01 | -56.30856 | 14.86006 | 35075 ft | 435 kts | 356° |
| 2026-05-07 13:01 | -56.24837 | 14.87270 | 35073 ft | 435 kts | 356° |
| 2026-05-07 13:02 | -56.18829 | 14.88528 | 35070 ft | 435 kts | 356° |
| 2026-05-07 13:02 | -56.12820 | 14.89776 | 35077 ft | 435 kts | 356° |
| 2026-05-07 13:03 | -56.06801 | 14.91025 | 35076 ft | 435 kts | 356° |
| 2026-05-07 13:03 | -56.00785 | 14.92270 | 35077 ft | 435 kts | 356° |
| 2026-05-07 13:04 | -55.95785 | 14.93301 | 35075 ft | 436 kts | 356° |
| 2026-05-07 13:04 | -55.89722 | 14.94542 | 35073 ft | 441 kts | 356° |
| 2026-05-07 13:05 | -55.83610 | 14.95795 | 35068 ft | 442 kts | 357° |
| 2026-05-07 13:05 | -55.77498 | 14.97052 | 35070 ft | 442 kts | 357° |
| 2026-05-07 13:06 | -55.71381 | 14.98303 | 35077 ft | 442 kts | 357° |
| 2026-05-07 13:06 | -55.65269 | 14.99546 | 35075 ft | 443 kts | 357° |
| 2026-05-07 13:07 | -55.59147 | 15.00788 | 35068 ft | 443 kts | 357° |
| 2026-05-07 13:07 | -55.53026 | 15.02025 | 35072 ft | 443 kts | 357° |
| 2026-05-07 13:08 | -55.46895 | 15.03256 | 35071 ft | 443 kts | 357° |
| 2026-05-07 13:08 | -55.40766 | 15.04488 | 35077 ft | 443 kts | 357° |
| 2026-05-07 13:09 | -55.34631 | 15.05715 | 35073 ft | 444 kts | 357° |
| 2026-05-07 13:09 | -55.28499 | 15.06938 | 35073 ft | 444 kts | 357° |
| 2026-05-07 13:10 | -55.22355 | 15.08160 | 35066 ft | 444 kts | 357° |
| 2026-05-07 13:10 | -55.16251 | 15.09369 | 35079 ft | 444 kts | 357° |
| 2026-05-07 13:11 | -55.10105 | 15.10585 | 35095 ft | 445 kts | 358° |
| 2026-05-07 13:11 | -55.03953 | 15.11796 | 35096 ft | 445 kts | 358° |
| 2026-05-07 13:12 | -54.97786 | 15.13008 | 35093 ft | 446 kts | 358° |
| 2026-05-07 13:12 | -54.91611 | 15.14216 | 35086 ft | 447 kts | 358° |
| 2026-05-07 13:13 | -54.85434 | 15.15423 | 35096 ft | 447 kts | 358° |
| 2026-05-07 13:13 | -54.79251 | 15.16626 | 35097 ft | 447 kts | 358° |
| 2026-05-07 13:14 | -54.73059 | 15.17826 | 35095 ft | 448 kts | 358° |
| 2026-05-07 13:14 | -54.66876 | 15.19022 | 35087 ft | 448 kts | 358° |
| 2026-05-07 13:15 | -54.60671 | 15.20220 | 35093 ft | 448 kts | 358° |
| 2026-05-07 13:15 | -54.54473 | 15.21413 | 35079 ft | 449 kts | 358° |
| 2026-05-07 13:16 | -54.48260 | 15.22605 | 35077 ft | 449 kts | 358° |
| 2026-05-07 13:16 | -54.42042 | 15.23791 | 35083 ft | 450 kts | 358° |
| 2026-05-07 13:17 | -54.35819 | 15.24976 | 35084 ft | 450 kts | 359° |
| 2026-05-07 13:17 | -54.29600 | 15.26154 | 35091 ft | 450 kts | 359° |
| 2026-05-07 13:18 | -54.23415 | 15.27325 | 35085 ft | 451 kts | 359° |
| 2026-05-07 13:18 | -54.17173 | 15.28502 | 35096 ft | 451 kts | 359° |
| 2026-05-07 13:19 | -54.10928 | 15.29680 | 35096 ft | 452 kts | 359° |
| 2026-05-07 13:19 | -54.04676 | 15.30853 | 35081 ft | 452 kts | 359° |
| 2026-05-07 13:20 | -53.98425 | 15.32023 | 35097 ft | 452 kts | 359° |
| 2026-05-07 13:20 | -53.92159 | 15.33188 | 35081 ft | 455 kts | 360° |
| 2026-05-07 13:21 | -53.85844 | 15.34360 | 35083 ft | 456 kts | 360° |
| 2026-05-07 13:21 | -53.79534 | 15.35532 | 35097 ft | 456 kts | 360° |
| 2026-05-07 13:22 | -53.73216 | 15.36700 | 35096 ft | 457 kts | 360° |
| 2026-05-07 13:22 | -53.66902 | 15.37864 | 35092 ft | 457 kts | 360° |
| 2026-05-07 13:23 | -53.60581 | 15.39026 | 35094 ft | 457 kts | 360° |
| 2026-05-07 13:23 | -53.54252 | 15.40185 | 35094 ft | 457 kts | 360° |
| 2026-05-07 13:24 | -53.47915 | 15.41340 | 35093 ft | 458 kts | 360° |
| 2026-05-07 13:24 | -53.41622 | 15.42486 | 35100 ft | 458 kts | 360° |
| 2026-05-07 13:25 | -53.35291 | 15.43637 | 35099 ft | 458 kts | 0° |
| 2026-05-07 13:25 | -53.28944 | 15.44784 | 35101 ft | 459 kts | 0° |
| 2026-05-07 13:26 | -53.22599 | 15.45928 | 35100 ft | 459 kts | 0° |
| 2026-05-07 13:26 | -53.16248 | 15.47070 | 35100 ft | 459 kts | 0° |
| 2026-05-07 13:27 | -53.09905 | 15.48209 | 35099 ft | 459 kts | 0° |
| 2026-05-07 13:27 | -53.03557 | 15.49345 | 35100 ft | 459 kts | 0° |
| 2026-05-07 13:28 | -52.97203 | 15.50477 | 35102 ft | 460 kts | 0° |
| 2026-05-07 13:28 | -52.90837 | 15.51606 | 35099 ft | 460 kts | 0° |
| 2026-05-07 13:29 | -52.84466 | 15.52735 | 35101 ft | 461 kts | 1° |
| 2026-05-07 13:29 | -52.78086 | 15.53862 | 35100 ft | 461 kts | 1° |
| 2026-05-07 13:30 | -52.71744 | 15.54980 | 35101 ft | 462 kts | 1° |
| 2026-05-07 13:30 | -52.65346 | 15.56104 | 35099 ft | 463 kts | 1° |
| 2026-05-07 13:31 | -52.58939 | 15.57227 | 35099 ft | 463 kts | 1° |
| 2026-05-07 13:31 | -52.52522 | 15.58347 | 35099 ft | 464 kts | 1° |
| 2026-05-07 13:32 | -52.46099 | 15.59466 | 35102 ft | 465 kts | 1° |
| 2026-05-07 13:32 | -52.39663 | 15.60583 | 35100 ft | 465 kts | 1° |
| 2026-05-07 13:33 | -52.33219 | 15.61698 | 35100 ft | 466 kts | 1° |
| 2026-05-07 13:33 | -52.26774 | 15.62811 | 35102 ft | 466 kts | 1° |
| 2026-05-07 13:34 | -52.17094 | 15.64476 | 35100 ft | 467 kts | 2° |
| 2026-05-07 13:35 | -52.10629 | 15.65583 | 35099 ft | 467 kts | 2° |
| 2026-05-07 13:35 | -52.04165 | 15.66687 | 35101 ft | 467 kts | 2° |
| 2026-05-07 13:36 | -51.97700 | 15.67789 | 35102 ft | 467 kts | 2° |
| 2026-05-07 13:36 | -51.91217 | 15.68891 | 35100 ft | 469 kts | 2° |
| 2026-05-07 13:37 | -51.84768 | 15.69985 | 35102 ft | 469 kts | 2° |
| 2026-05-07 13:37 | -51.78276 | 15.71079 | 35099 ft | 469 kts | 2° |
| 2026-05-07 13:38 | -51.71783 | 15.72170 | 35102 ft | 469 kts | 2° |
| 2026-05-07 13:38 | -51.65292 | 15.73261 | 35101 ft | 469 kts | 2° |
| 2026-05-07 13:39 | -51.58795 | 15.74349 | 35099 ft | 469 kts | 2° |
| 2026-05-07 13:39 | -51.52298 | 15.75434 | 35101 ft | 469 kts | 2° |
| 2026-05-07 13:40 | -51.45798 | 15.76515 | 35101 ft | 470 kts | 2° |
| 2026-05-07 13:40 | -51.39289 | 15.77596 | 35099 ft | 470 kts | 2° |
| 2026-05-07 13:41 | -51.32774 | 15.78674 | 35100 ft | 471 kts | 2° |
| 2026-05-07 13:41 | -51.26247 | 15.79750 | 35102 ft | 472 kts | 2° |
| 2026-05-07 13:42 | -51.19713 | 15.80827 | 35100 ft | 472 kts | 2° |
| 2026-05-07 13:42 | -51.13169 | 15.81901 | 35101 ft | 473 kts | 2° |
| 2026-05-07 13:43 | -51.06622 | 15.82971 | 35100 ft | 473 kts | 3° |
| 2026-05-07 13:43 | -51.00068 | 15.84040 | 35100 ft | 474 kts | 3° |
| 2026-05-07 13:44 | -50.93498 | 15.85108 | 35102 ft | 475 kts | 3° |
| 2026-05-07 13:44 | -50.86917 | 15.86176 | 35108 ft | 476 kts | 3° |
| 2026-05-07 13:45 | -50.80326 | 15.87242 | 35109 ft | 477 kts | 3° |
| 2026-05-07 13:45 | -50.73717 | 15.88308 | 35110 ft | 478 kts | 3° |
| 2026-05-07 13:46 | -50.67097 | 15.89373 | 35110 ft | 479 kts | 3° |
| 2026-05-07 13:46 | -50.60468 | 15.90436 | 35109 ft | 479 kts | 4° |
| 2026-05-07 13:47 | -50.53870 | 15.91494 | 35111 ft | 480 kts | 4° |
| 2026-05-07 13:47 | -50.47224 | 15.92555 | 35119 ft | 481 kts | 4° |
| 2026-05-07 13:48 | -50.40559 | 15.93613 | 35119 ft | 482 kts | 4° |
| 2026-05-07 13:48 | -50.33887 | 15.94671 | 35118 ft | 482 kts | 4° |
| 2026-05-07 13:49 | -50.27207 | 15.95727 | 35121 ft | 483 kts | 4° |
| 2026-05-07 13:49 | -50.20512 | 15.96782 | 35116 ft | 483 kts | 4° |
| 2026-05-07 13:50 | -50.13815 | 15.97834 | 35119 ft | 484 kts | 4° |
| 2026-05-07 13:50 | -50.07118 | 15.98885 | 35120 ft | 484 kts | 4° |
| 2026-05-07 13:51 | -50.00424 | 15.99933 | 35321 ft | 483 kts | 4° |
| 2026-05-07 13:51 | -49.97085 | 16.00508 | 35490 ft | 483 kts | 6° |
| 2026-05-07 13:51 | -49.93756 | 16.01259 | 35645 ft | 483 kts | 7° |
| 2026-05-07 13:51 | -49.90448 | 16.02097 | 35824 ft | 482 kts | 8° |
| 2026-05-07 13:52 | -49.88260 | 16.02666 | 35925 ft | 481 kts | 8° |
| 2026-05-07 13:52 | -49.84955 | 16.03520 | 36059 ft | 481 kts | 8° |
| 2026-05-07 13:52 | -49.81651 | 16.04354 | 36178 ft | 481 kts | 7° |
| 2026-05-07 13:52 | -49.78344 | 16.05168 | 36299 ft | 481 kts | 7° |
| 2026-05-07 13:53 | -49.75040 | 16.05965 | 36420 ft | 481 kts | 7° |
| 2026-05-07 13:53 | -49.71730 | 16.06753 | 36541 ft | 481 kts | 7° |
| 2026-05-07 13:53 | -49.68428 | 16.07534 | 36730 ft | 479 kts | 7° |
| 2026-05-07 13:53 | -49.65143 | 16.08309 | 36909 ft | 477 kts | 7° |
| 2026-05-07 13:54 | -49.61868 | 16.09081 | 37079 ft | 475 kts | 7° |
| 2026-05-07 13:54 | -49.55340 | 16.10621 | 37122 ft | 472 kts | 7° |
| 2026-05-07 13:55 | -49.48873 | 16.12142 | 37119 ft | 470 kts | 7° |
| 2026-05-07 13:55 | -49.42411 | 16.13659 | 37124 ft | 470 kts | 7° |
| 2026-05-07 13:56 | -49.35950 | 16.15169 | 37115 ft | 469 kts | 7° |
| 2026-05-07 13:56 | -49.29494 | 16.16676 | 37116 ft | 469 kts | 7° |
| 2026-05-07 13:57 | -49.23045 | 16.18174 | 37116 ft | 468 kts | 7° |
| 2026-05-07 13:57 | -49.16608 | 16.19669 | 37121 ft | 468 kts | 7° |
| 2026-05-07 13:58 | -49.10170 | 16.21160 | 37116 ft | 468 kts | 7° |
| 2026-05-07 13:58 | -49.03736 | 16.22647 | 37116 ft | 468 kts | 7° |
| 2026-05-07 13:59 | -48.97296 | 16.24130 | 37116 ft | 467 kts | 7° |
| 2026-05-07 13:59 | -48.90871 | 16.25608 | 37121 ft | 467 kts | 8° |
| 2026-05-07 14:00 | -48.84444 | 16.27080 | 37119 ft | 467 kts | 7° |
| 2026-05-07 14:00 | -48.78062 | 16.28538 | 37121 ft | 467 kts | 8° |
| 2026-05-07 14:01 | -48.71644 | 16.30000 | 37116 ft | 466 kts | 8° |
| 2026-05-07 14:01 | -48.65215 | 16.31461 | 37122 ft | 466 kts | 8° |
| 2026-05-07 14:02 | -48.58797 | 16.32917 | 37115 ft | 466 kts | 8° |
| 2026-05-07 14:02 | -48.52388 | 16.34365 | 37119 ft | 466 kts | 8° |
| 2026-05-07 14:03 | -48.45973 | 16.35814 | 37118 ft | 466 kts | 8° |
| 2026-05-07 14:03 | -48.39557 | 16.37261 | 37122 ft | 466 kts | 8° |
| 2026-05-07 14:04 | -48.33136 | 16.38700 | 37120 ft | 467 kts | 8° |
| 2026-05-07 14:04 | -48.26714 | 16.40138 | 37122 ft | 467 kts | 8° |
| 2026-05-07 14:05 | -48.20292 | 16.41571 | 37118 ft | 467 kts | 8° |
| 2026-05-07 14:05 | -48.13868 | 16.43002 | 37118 ft | 466 kts | 8° |
| 2026-05-07 14:06 | -48.07451 | 16.44429 | 37121 ft | 466 kts | 8° |
| 2026-05-07 14:06 | -48.01037 | 16.45851 | 37139 ft | 466 kts | 8° |
| 2026-05-07 14:07 | -47.94625 | 16.47267 | 37147 ft | 465 kts | 8° |
| 2026-05-07 14:07 | -47.88225 | 16.48680 | 37147 ft | 465 kts | 8° |
| 2026-05-07 14:08 | -47.81822 | 16.50091 | 37146 ft | 465 kts | 8° |
| 2026-05-07 14:08 | -47.75419 | 16.51495 | 37147 ft | 465 kts | 7° |
| 2026-05-07 14:09 | -47.69023 | 16.52893 | 37146 ft | 465 kts | 7° |
| 2026-05-07 14:09 | -47.62626 | 16.54290 | 37147 ft | 464 kts | 7° |
| 2026-05-07 14:10 | -47.56235 | 16.55681 | 37147 ft | 464 kts | 7° |
| 2026-05-07 14:10 | -47.49851 | 16.57069 | 37146 ft | 464 kts | 7° |
| 2026-05-07 14:11 | -47.43514 | 16.58443 | 37147 ft | 463 kts | 7° |
| 2026-05-07 14:11 | -47.37138 | 16.59821 | 37147 ft | 463 kts | 7° |
| 2026-05-07 14:12 | -47.30771 | 16.61195 | 37146 ft | 462 kts | 7° |
| 2026-05-07 14:12 | -47.24409 | 16.62566 | 37147 ft | 462 kts | 7° |
| 2026-05-07 14:13 | -47.18051 | 16.63930 | 37146 ft | 461 kts | 7° |
| 2026-05-07 14:13 | -47.11696 | 16.65289 | 37147 ft | 461 kts | 7° |
| 2026-05-07 14:14 | -47.05351 | 16.66641 | 37147 ft | 461 kts | 7° |
| 2026-05-07 14:14 | -46.99008 | 16.67994 | 37147 ft | 461 kts | 7° |
| 2026-05-07 14:15 | -46.92668 | 16.69343 | 37147 ft | 460 kts | 7° |
| 2026-05-07 14:15 | -46.86334 | 16.70687 | 37147 ft | 460 kts | 7° |
| 2026-05-07 14:16 | -46.80005 | 16.72028 | 37147 ft | 460 kts | 6° |
| 2026-05-07 14:16 | -46.73677 | 16.73363 | 37147 ft | 459 kts | 6° |
| 2026-05-07 14:17 | -46.67349 | 16.74695 | 37147 ft | 459 kts | 6° |
| 2026-05-07 14:17 | -46.61024 | 16.76025 | 37147 ft | 459 kts | 6° |
| 2026-05-07 14:18 | -46.54705 | 16.77348 | 37146 ft | 459 kts | 6° |
| 2026-05-07 14:18 | -46.48390 | 16.78670 | 37144 ft | 458 kts | 6° |
| 2026-05-07 14:19 | -46.42069 | 16.79989 | 37147 ft | 458 kts | 6° |
| 2026-05-07 14:19 | -46.35788 | 16.81296 | 37146 ft | 458 kts | 6° |
| 2026-05-07 14:20 | -46.29479 | 16.82605 | 37146 ft | 458 kts | 6° |
| 2026-05-07 14:20 | -46.23164 | 16.83912 | 37146 ft | 458 kts | 6° |
| 2026-05-07 14:21 | -46.16861 | 16.85215 | 37147 ft | 458 kts | 6° |
| 2026-05-07 14:21 | -46.10558 | 16.86516 | 37147 ft | 458 kts | 6° |
| 2026-05-07 14:22 | -46.04253 | 16.87811 | 37147 ft | 458 kts | 6° |
| 2026-05-07 14:22 | -45.97945 | 16.89105 | 37146 ft | 458 kts | 6° |
| 2026-05-07 14:23 | -45.91652 | 16.90394 | 37147 ft | 456 kts | 6° |
| 2026-05-07 14:23 | -45.85371 | 16.91678 | 37146 ft | 456 kts | 6° |
| 2026-05-07 14:24 | -45.79094 | 16.92957 | 37147 ft | 455 kts | 6° |
| 2026-05-07 14:24 | -45.72821 | 16.94234 | 37147 ft | 455 kts | 6° |
| 2026-05-07 14:25 | -45.66546 | 16.95507 | 37146 ft | 455 kts | 6° |
| 2026-05-07 14:25 | -45.60272 | 16.96777 | 37147 ft | 455 kts | 6° |
| 2026-05-07 14:26 | -45.54006 | 16.98042 | 37146 ft | 455 kts | 6° |
| 2026-05-07 14:26 | -45.47780 | 16.99296 | 37146 ft | 454 kts | 6° |
| 2026-05-07 14:27 | -45.41516 | 17.00555 | 37146 ft | 455 kts | 6° |
| 2026-05-07 14:27 | -45.35250 | 17.01812 | 37147 ft | 455 kts | 6° |
| 2026-05-07 14:28 | -45.28990 | 17.03066 | 37146 ft | 454 kts | 6° |
| 2026-05-07 14:28 | -45.22727 | 17.04318 | 37146 ft | 454 kts | 6° |
| 2026-05-07 14:29 | -45.16472 | 17.05565 | 37146 ft | 454 kts | 6° |
| 2026-05-07 14:29 | -45.10218 | 17.06808 | 37146 ft | 454 kts | 6° |
| 2026-05-07 14:30 | -45.03965 | 17.08049 | 37147 ft | 454 kts | 6° |
| 2026-05-07 14:30 | -44.97717 | 17.09286 | 37147 ft | 453 kts | 6° |
| 2026-05-07 14:31 | -44.91471 | 17.10520 | 37147 ft | 453 kts | 6° |
| 2026-05-07 14:31 | -44.85228 | 17.11751 | 37147 ft | 453 kts | 6° |
| 2026-05-07 14:32 | -44.78982 | 17.12979 | 37147 ft | 453 kts | 6° |
| 2026-05-07 14:32 | -44.72742 | 17.14203 | 37147 ft | 453 kts | 6° |
| 2026-05-07 14:33 | -44.66496 | 17.15425 | 37156 ft | 453 kts | 6° |
| 2026-05-07 14:33 | -44.60262 | 17.16644 | 37154 ft | 452 kts | 6° |
| 2026-05-07 14:34 | -44.54067 | 17.17853 | 37157 ft | 452 kts | 6° |
| 2026-05-07 14:34 | -44.47837 | 17.19065 | 37154 ft | 452 kts | 6° |
| 2026-05-07 14:35 | -44.41602 | 17.20275 | 37157 ft | 452 kts | 6° |
| 2026-05-07 14:35 | -44.35377 | 17.21479 | 37157 ft | 451 kts | 6° |
| 2026-05-07 14:36 | -44.29156 | 17.22683 | 37151 ft | 451 kts | 6° |
| 2026-05-07 14:36 | -44.22936 | 17.23883 | 37157 ft | 451 kts | 6° |
| 2026-05-07 14:37 | -44.16721 | 17.25079 | 37157 ft | 451 kts | 6° |
| 2026-05-07 14:37 | -44.07401 | 17.26868 | 37157 ft | 450 kts | 6° |
| 2026-05-07 14:38 | -44.02246 | 17.27856 | 37152 ft | 450 kts | 6° |
| 2026-05-07 14:38 | -43.96040 | 17.29044 | 37157 ft | 450 kts | 6° |
| 2026-05-07 14:39 | -43.89847 | 17.30225 | 37157 ft | 449 kts | 6° |
| 2026-05-07 14:39 | -43.83649 | 17.31404 | 37157 ft | 449 kts | 6° |
| 2026-05-07 14:40 | -43.77457 | 17.32579 | 37153 ft | 449 kts | 6° |
| 2026-05-07 14:40 | -43.71268 | 17.33752 | 37158 ft | 449 kts | 6° |
| 2026-05-07 14:41 | -43.65081 | 17.34923 | 37158 ft | 449 kts | 6° |
| 2026-05-07 14:41 | -43.58886 | 17.36092 | 37157 ft | 449 kts | 6° |
| 2026-05-07 14:42 | -43.52695 | 17.37258 | 37157 ft | 449 kts | 6° |
| 2026-05-07 14:42 | -43.46537 | 17.38415 | 37157 ft | 449 kts | 6° |
| 2026-05-07 14:43 | -43.40303 | 17.39585 | 37154 ft | 449 kts | 6° |
| 2026-05-07 14:43 | -43.34149 | 17.40738 | 37157 ft | 449 kts | 6° |
| 2026-05-07 14:44 | -43.27955 | 17.41895 | 37152 ft | 449 kts | 6° |
| 2026-05-07 14:44 | -43.21760 | 17.43049 | 37157 ft | 449 kts | 6° |
| 2026-05-07 14:45 | -43.15568 | 17.44200 | 37155 ft | 449 kts | 6° |
| 2026-05-07 14:45 | -43.09373 | 17.45349 | 37157 ft | 449 kts | 6° |
| 2026-05-07 14:46 | -43.03177 | 17.46498 | 37156 ft | 449 kts | 6° |
| 2026-05-07 14:46 | -42.96981 | 17.47646 | 37158 ft | 449 kts | 6° |
| 2026-05-07 14:47 | -42.90780 | 17.48789 | 37157 ft | 449 kts | 6° |
| 2026-05-07 14:47 | -42.84618 | 17.49922 | 37157 ft | 449 kts | 6° |
| 2026-05-07 14:48 | -42.78427 | 17.51062 | 37151 ft | 449 kts | 6° |
| 2026-05-07 14:48 | -42.72235 | 17.52198 | 37157 ft | 448 kts | 6° |
| 2026-05-07 14:49 | -42.66058 | 17.53326 | 37155 ft | 448 kts | 6° |
| 2026-05-07 14:49 | -42.59877 | 17.54455 | 37157 ft | 448 kts | 6° |
| 2026-05-07 14:50 | -42.53699 | 17.55582 | 37151 ft | 448 kts | 6° |
| 2026-05-07 14:50 | -42.47520 | 17.56707 | 37157 ft | 448 kts | 6° |
| 2026-05-07 14:51 | -42.41345 | 17.57829 | 37157 ft | 447 kts | 6° |
| 2026-05-07 14:51 | -42.35180 | 17.58946 | 37157 ft | 447 kts | 6° |
| 2026-05-07 14:52 | -42.29012 | 17.60061 | 37155 ft | 447 kts | 6° |
| 2026-05-07 14:52 | -42.22871 | 17.61169 | 37151 ft | 447 kts | 6° |
| 2026-05-07 14:53 | -42.16712 | 17.62280 | 37157 ft | 446 kts | 6° |
| 2026-05-07 14:53 | -42.10555 | 17.63387 | 37158 ft | 446 kts | 6° |
| 2026-05-07 14:54 | -42.04400 | 17.64491 | 37154 ft | 446 kts | 6° |
| 2026-05-07 14:54 | -41.98247 | 17.65592 | 37155 ft | 446 kts | 6° |
| 2026-05-07 14:55 | -41.92093 | 17.66693 | 37153 ft | 445 kts | 6° |
| 2026-05-07 14:55 | -41.85947 | 17.67790 | 37157 ft | 446 kts | 6° |
| 2026-05-07 14:56 | -41.79800 | 17.68886 | 37154 ft | 445 kts | 6° |
| 2026-05-07 14:56 | -41.73655 | 17.69977 | 37160 ft | 446 kts | 6° |
| 2026-05-07 14:57 | -41.67502 | 17.71067 | 37163 ft | 446 kts | 6° |
| 2026-05-07 14:57 | -41.61386 | 17.72150 | 37164 ft | 446 kts | 6° |
| 2026-05-07 14:58 | -41.55223 | 17.73240 | 37162 ft | 447 kts | 6° |
| 2026-05-07 14:58 | -41.49054 | 17.74330 | 37162 ft | 447 kts | 6° |
| 2026-05-07 14:59 | -41.42878 | 17.75417 | 37154 ft | 447 kts | 6° |
| 2026-05-07 14:59 | -41.36703 | 17.76501 | 37158 ft | 447 kts | 6° |
| 2026-05-07 15:00 | -41.30527 | 17.77583 | 37157 ft | 448 kts | 6° |
| 2026-05-07 15:00 | -41.24353 | 17.78664 | 37159 ft | 448 kts | 6° |
| 2026-05-07 15:01 | -41.18169 | 17.79743 | 37160 ft | 448 kts | 6° |
| 2026-05-07 15:01 | -41.11982 | 17.80821 | 37161 ft | 449 kts | 6° |
| 2026-05-07 15:02 | -41.05793 | 17.81899 | 37161 ft | 449 kts | 6° |
| 2026-05-07 15:02 | -40.99644 | 17.82969 | 37168 ft | 449 kts | 6° |
| 2026-05-07 15:03 | -40.93453 | 17.84041 | 37165 ft | 449 kts | 6° |
| 2026-05-07 15:03 | -40.87268 | 17.85111 | 37162 ft | 448 kts | 6° |
| 2026-05-07 15:04 | -40.81035 | 17.86187 | 37162 ft | 449 kts | 6° |
| 2026-05-07 15:04 | -40.74847 | 17.87253 | 37166 ft | 448 kts | 6° |
| 2026-05-07 15:05 | -40.68699 | 17.88310 | 37166 ft | 448 kts | 6° |
| 2026-05-07 15:05 | -40.62506 | 17.89374 | 37168 ft | 449 kts | 6° |
| 2026-05-07 15:06 | -40.56322 | 17.90435 | 37163 ft | 448 kts | 6° |
| 2026-05-07 15:06 | -40.50094 | 17.91501 | 37163 ft | 448 kts | 6° |
| 2026-05-07 15:07 | -40.43953 | 17.92549 | 37167 ft | 448 kts | 6° |
| 2026-05-07 15:07 | -40.37772 | 17.93602 | 37166 ft | 448 kts | 6° |
| 2026-05-07 15:08 | -40.31588 | 17.94655 | 37168 ft | 448 kts | 6° |
| 2026-05-07 15:08 | -40.25408 | 17.95705 | 37163 ft | 448 kts | 6° |
| 2026-05-07 15:09 | -40.19233 | 17.96751 | 37168 ft | 447 kts | 6° |
| 2026-05-07 15:09 | -40.13058 | 17.97797 | 37162 ft | 447 kts | 6° |
| 2026-05-07 15:10 | -40.06885 | 17.98838 | 37168 ft | 447 kts | 6° |
| 2026-05-07 15:10 | -40.00717 | 17.99878 | 37168 ft | 447 kts | 6° |
| 2026-05-07 15:11 | -39.94591 | 18.00939 | 37164 ft | 447 kts | 6° |
| 2026-05-07 15:11 | -39.88434 | 18.02048 | 37160 ft | 447 kts | 6° |
| 2026-05-07 15:12 | -39.82273 | 18.03154 | 37164 ft | 447 kts | 6° |
| 2026-05-07 15:12 | -39.76114 | 18.04251 | 37167 ft | 447 kts | 6° |
| 2026-05-07 15:13 | -39.69953 | 18.05342 | 37164 ft | 447 kts | 6° |
| 2026-05-07 15:13 | -39.63780 | 18.06433 | 37170 ft | 448 kts | 6° |
| 2026-05-07 15:14 | -39.57588 | 18.07526 | 37169 ft | 449 kts | 6° |
| 2026-05-07 15:14 | -39.51403 | 18.08616 | 37174 ft | 449 kts | 6° |
| 2026-05-07 15:15 | -39.45202 | 18.09708 | 37179 ft | 449 kts | 6° |
| 2026-05-07 15:15 | -39.39005 | 18.10796 | 37176 ft | 449 kts | 6° |
| 2026-05-07 15:16 | -39.32805 | 18.11884 | 37177 ft | 449 kts | 6° |
| 2026-05-07 15:16 | -39.26604 | 18.12968 | 37175 ft | 450 kts | 6° |
| 2026-05-07 15:17 | -39.20387 | 18.14054 | 37172 ft | 451 kts | 6° |
| 2026-05-07 15:17 | -39.14171 | 18.15138 | 37169 ft | 451 kts | 6° |
| 2026-05-07 15:18 | -39.07987 | 18.16215 | 37170 ft | 452 kts | 6° |
| 2026-05-07 15:18 | -39.01712 | 18.17305 | 37177 ft | 452 kts | 6° |
| 2026-05-07 15:19 | -38.95518 | 18.18379 | 37177 ft | 452 kts | 6° |
| 2026-05-07 15:19 | -38.89278 | 18.19459 | 37176 ft | 453 kts | 6° |
| 2026-05-07 15:20 | -38.83026 | 18.20540 | 37171 ft | 453 kts | 6° |
| 2026-05-07 15:20 | -38.76769 | 18.21619 | 37169 ft | 454 kts | 6° |
| 2026-05-07 15:21 | -38.70502 | 18.22698 | 37174 ft | 455 kts | 6° |
| 2026-05-07 15:21 | -38.64233 | 18.23775 | 37173 ft | 455 kts | 6° |
| 2026-05-07 15:22 | -38.57970 | 18.24850 | 37173 ft | 455 kts | 6° |
| 2026-05-07 15:22 | -38.51682 | 18.25927 | 37178 ft | 456 kts | 6° |
| 2026-05-07 15:23 | -38.45391 | 18.27003 | 37178 ft | 456 kts | 6° |
| 2026-05-07 15:23 | -38.39100 | 18.28077 | 37173 ft | 457 kts | 6° |
| 2026-05-07 15:24 | -38.32798 | 18.29151 | 37177 ft | 457 kts | 6° |
| 2026-05-07 15:24 | -38.26492 | 18.30225 | 37178 ft | 457 kts | 6° |
| 2026-05-07 15:25 | -38.21252 | 18.31114 | 37174 ft | 457 kts | 6° |
| 2026-05-07 15:25 | -38.14942 | 18.32182 | 37179 ft | 457 kts | 6° |
| 2026-05-07 15:26 | -38.08629 | 18.33250 | 37178 ft | 457 kts | 6° |
| 2026-05-07 15:26 | -38.02319 | 18.34317 | 37176 ft | 458 kts | 6° |
| 2026-05-07 15:27 | -37.96007 | 18.35382 | 37178 ft | 458 kts | 6° |
| 2026-05-07 15:27 | -37.89685 | 18.36446 | 37169 ft | 458 kts | 6° |
| 2026-05-07 15:28 | -37.83362 | 18.37509 | 37178 ft | 458 kts | 6° |
| 2026-05-07 15:28 | -37.77040 | 18.38571 | 37179 ft | 458 kts | 6° |
| 2026-05-07 15:29 | -37.70719 | 18.39632 | 37176 ft | 459 kts | 6° |
| 2026-05-07 15:29 | -37.64389 | 18.40689 | 37172 ft | 459 kts | 6° |
| 2026-05-07 15:30 | -37.58063 | 18.41745 | 37172 ft | 459 kts | 6° |
| 2026-05-07 15:30 | -37.51768 | 18.42794 | 37171 ft | 459 kts | 6° |
| 2026-05-07 15:31 | -37.45441 | 18.43845 | 37179 ft | 459 kts | 6° |
| 2026-05-07 15:31 | -37.39103 | 18.44897 | 37172 ft | 459 kts | 6° |
| 2026-05-07 15:32 | -37.32762 | 18.45950 | 37176 ft | 460 kts | 6° |
| 2026-05-07 15:32 | -37.26423 | 18.46999 | 37179 ft | 460 kts | 6° |
| 2026-05-07 15:33 | -37.20076 | 18.48049 | 37170 ft | 460 kts | 6° |
| 2026-05-07 15:33 | -37.13731 | 18.49095 | 37174 ft | 460 kts | 6° |
| 2026-05-07 15:34 | -37.07378 | 18.50141 | 37173 ft | 461 kts | 6° |
| 2026-05-07 15:34 | -37.01010 | 18.50937 | 37175 ft | 458 kts | 355° |
| 2026-05-07 15:35 | -36.94660 | 18.50359 | 37176 ft | 458 kts | 352° |
| 2026-05-07 15:35 | -36.88323 | 18.49504 | 37174 ft | 458 kts | 352° |
| 2026-05-07 15:36 | -36.81988 | 18.48610 | 37180 ft | 458 kts | 352° |
| 2026-05-07 15:36 | -36.75643 | 18.47738 | 37177 ft | 459 kts | 352° |
| 2026-05-07 15:37 | -36.69292 | 18.46884 | 37170 ft | 459 kts | 352° |
| 2026-05-07 15:37 | -36.62945 | 18.46037 | 37178 ft | 459 kts | 352° |
| 2026-05-07 15:38 | -36.56628 | 18.45195 | 37172 ft | 459 kts | 352° |
| 2026-05-07 15:38 | -36.50271 | 18.44348 | 37175 ft | 460 kts | 351° |
| 2026-05-07 15:39 | -36.43914 | 18.43501 | 37172 ft | 460 kts | 351° |
| 2026-05-07 15:39 | -36.37546 | 18.42656 | 37169 ft | 460 kts | 352° |
| 2026-05-07 15:40 | -36.31176 | 18.41813 | 37175 ft | 460 kts | 351° |
| 2026-05-07 15:40 | -36.24804 | 18.40968 | 37173 ft | 460 kts | 351° |
| 2026-05-07 15:41 | -36.18438 | 18.40125 | 37171 ft | 460 kts | 351° |
| 2026-05-07 15:41 | -36.12062 | 18.39283 | 37173 ft | 461 kts | 351° |
| 2026-05-07 15:42 | -36.05687 | 18.38444 | 37174 ft | 461 kts | 351° |
| 2026-05-07 15:42 | -35.99305 | 18.37604 | 37179 ft | 461 kts | 351° |
| 2026-05-07 15:43 | -35.92928 | 18.36765 | 37173 ft | 461 kts | 351° |
| 2026-05-07 15:43 | -35.86548 | 18.35928 | 37178 ft | 461 kts | 351° |
| 2026-05-07 15:44 | -35.86233 | 18.35887 | 37180 ft | 461 kts | 351° |
| 2026-05-07 15:44 | -35.82648 | 18.35417 | 37173 ft | 461 kts | 351° |
| 2026-05-07 15:45 | -35.76268 | 18.34582 | 37174 ft | 461 kts | 351° |
| 2026-05-07 15:45 | -35.69882 | 18.33748 | 37172 ft | 462 kts | 351° |
| 2026-05-07 15:46 | -35.63509 | 18.32919 | 36780 ft | 459 kts | 351° |
| 2026-05-07 15:46 | -35.60318 | 18.32503 | 36085 ft | 463 kts | 351° |
| 2026-05-07 15:46 | -35.57103 | 18.32083 | 35379 ft | 467 kts | 351° |
| 2026-05-07 15:47 | -35.53859 | 18.31661 | 34657 ft | 471 kts | 351° |
| 2026-05-07 15:47 | -35.50587 | 18.31235 | 33911 ft | 475 kts | 351° |
| 2026-05-07 15:47 | -35.47292 | 18.30807 | 33169 ft | 478 kts | 352° |
| 2026-05-07 15:47 | -35.43971 | 18.30376 | 32446 ft | 481 kts | 351° |
| 2026-05-07 15:48 | -35.40638 | 18.29944 | 31726 ft | 483 kts | 351° |
| 2026-05-07 15:48 | -35.37288 | 18.29511 | 30983 ft | 485 kts | 351° |
| 2026-05-07 15:48 | -35.33926 | 18.29077 | 30223 ft | 487 kts | 351° |
| 2026-05-07 15:48 | -35.30551 | 18.28641 | 29453 ft | 489 kts | 351° |
| 2026-05-07 15:49 | -35.27170 | 18.28205 | 28759 ft | 489 kts | 351° |
| 2026-05-07 15:49 | -35.23783 | 18.27769 | 28085 ft | 488 kts | 351° |
| 2026-05-07 15:49 | -35.20409 | 18.27335 | 27439 ft | 487 kts | 351° |
| 2026-05-07 15:49 | -35.17041 | 18.26901 | 26811 ft | 485 kts | 352° |
| 2026-05-07 15:50 | -35.13697 | 18.26471 | 26243 ft | 482 kts | 352° |
| 2026-05-07 15:50 | -35.10370 | 18.26044 | 25698 ft | 478 kts | 352° |
| 2026-05-07 15:50 | -35.07079 | 18.25621 | 25162 ft | 474 kts | 352° |
| 2026-05-07 15:50 | -35.03809 | 18.25200 | 24619 ft | 470 kts | 352° |
| 2026-05-07 15:51 | -35.00566 | 18.24784 | 24095 ft | 467 kts | 352° |
| 2026-05-07 15:51 | -34.97351 | 18.24372 | 23549 ft | 463 kts | 352° |
| 2026-05-07 15:51 | -34.94153 | 18.23963 | 23014 ft | 460 kts | 352° |
| 2026-05-07 15:51 | -34.90977 | 18.23557 | 22481 ft | 457 kts | 352° |
| 2026-05-07 15:52 | -34.87826 | 18.23154 | 21956 ft | 454 kts | 352° |
| 2026-05-07 15:52 | -34.84693 | 18.22753 | 21421 ft | 451 kts | 352° |
| 2026-05-07 15:52 | -34.81583 | 18.22356 | 20909 ft | 448 kts | 352° |
| 2026-05-07 15:52 | -34.78497 | 18.21962 | 20379 ft | 444 kts | 353° |
| 2026-05-07 15:53 | -34.75435 | 18.21571 | 19893 ft | 441 kts | 353° |
| 2026-05-07 15:53 | -34.72441 | 18.21190 | 19386 ft | 437 kts | 353° |
| 2026-05-07 15:53 | -34.70402 | 18.20930 | 19046 ft | 435 kts | 353° |
| 2026-05-07 15:53 | -34.66433 | 18.20425 | 18393 ft | 430 kts | 353° |
| 2026-05-07 15:54 | -34.63470 | 18.20048 | 17896 ft | 427 kts | 353° |
| 2026-05-07 15:54 | -34.60540 | 18.19676 | 17408 ft | 424 kts | 353° |
| 2026-05-07 15:54 | -34.57615 | 18.19305 | 16917 ft | 421 kts | 353° |
| 2026-05-07 15:54 | -34.54718 | 18.18937 | 16427 ft | 417 kts | 353° |
| 2026-05-07 15:55 | -34.51837 | 18.18571 | 15941 ft | 414 kts | 353° |
| 2026-05-07 15:55 | -34.48981 | 18.18209 | 15455 ft | 411 kts | 353° |
| 2026-05-07 15:55 | -34.46149 | 18.17850 | 14977 ft | 408 kts | 353° |
| 2026-05-07 15:55 | -34.43339 | 18.17495 | 14498 ft | 405 kts | 353° |
| 2026-05-07 15:56 | -34.40574 | 18.17145 | 14028 ft | 402 kts | 353° |
| 2026-05-07 15:56 | -34.37784 | 18.16792 | 13546 ft | 399 kts | 354° |
| 2026-05-07 15:56 | -34.35025 | 18.16444 | 13067 ft | 396 kts | 354° |
| 2026-05-07 15:56 | -34.32298 | 18.16100 | 12603 ft | 393 kts | 354° |
| 2026-05-07 15:57 | -34.29588 | 18.15758 | 12134 ft | 390 kts | 354° |
| 2026-05-07 15:57 | -34.26899 | 18.15419 | 11666 ft | 387 kts | 354° |
| 2026-05-07 15:57 | -34.24229 | 18.15151 | 11221 ft | 383 kts | 0° |
| 2026-05-07 15:57 | -34.21657 | 18.15694 | 10969 ft | 372 kts | 21° |
| 2026-05-07 15:58 | -34.19466 | 18.17226 | 10786 ft | 359 kts | 42° |
| 2026-05-07 15:58 | -34.17902 | 18.19487 | 10600 ft | 347 kts | 60° |
| 2026-05-07 15:58 | -34.16731 | 18.21982 | 10436 ft | 336 kts | 63° |
| 2026-05-07 15:58 | -34.15645 | 18.24441 | 10261 ft | 327 kts | 63° |
| 2026-05-07 15:59 | -34.14592 | 18.26835 | 10106 ft | 319 kts | 63° |
| 2026-05-07 15:59 | -34.13566 | 18.29168 | 9946 ft | 310 kts | 63° |
| 2026-05-07 15:59 | -34.12572 | 18.31422 | 9723 ft | 298 kts | 63° |
| 2026-05-07 15:59 | -34.11611 | 18.33602 | 9492 ft | 292 kts | 63° |
| 2026-05-07 16:00 | -34.10652 | 18.35739 | 9272 ft | 287 kts | 63° |
| 2026-05-07 16:00 | -34.09719 | 18.37841 | 9186 ft | 283 kts | 63° |
| 2026-05-07 16:00 | -34.08620 | 18.39813 | 9183 ft | 285 kts | 50° |
| 2026-05-07 16:00 | -34.07096 | 18.41328 | 9074 ft | 286 kts | 30° |
| 2026-05-07 16:01 | -34.05201 | 18.42024 | 8754 ft | 288 kts | 5° |
| 2026-05-07 16:01 | -34.03227 | 18.41687 | 8431 ft | 290 kts | 339° |
| 2026-05-07 16:01 | -34.01456 | 18.40544 | 8103 ft | 288 kts | 334° |
| 2026-05-07 16:01 | -33.99525 | 18.40036 | 7742 ft | 285 kts | 3° |
| 2026-05-07 16:02 | -33.97571 | 18.40325 | 7462 ft | 282 kts | 13° |
| 2026-05-07 16:02 | -33.95659 | 18.40806 | 7144 ft | 280 kts | 13° |
| 2026-05-07 16:02 | -33.93745 | 18.41217 | 6860 ft | 279 kts | 9° |
| 2026-05-07 16:02 | -33.91818 | 18.41472 | 6561 ft | 278 kts | 5° |
| 2026-05-07 16:03 | -33.89885 | 18.41582 | 6267 ft | 277 kts | 2° |
| 2026-05-07 16:03 | -33.87962 | 18.41591 | 5966 ft | 276 kts | 0° |
| 2026-05-07 16:03 | -33.86693 | 18.41563 | 5760 ft | 275 kts | 360° |
| 2026-05-07 16:03 | -33.84139 | 18.41467 | 5339 ft | 274 kts | 359° |
| 2026-05-07 16:04 | -33.82237 | 18.41386 | 5021 ft | 273 kts | 359° |
| 2026-05-07 16:04 | -33.80342 | 18.41310 | 4703 ft | 272 kts | 359° |
| 2026-05-07 16:04 | -33.78457 | 18.41241 | 4391 ft | 271 kts | 359° |
| 2026-05-07 16:04 | -33.76576 | 18.41180 | 4069 ft | 270 kts | 359° |
| 2026-05-07 16:05 | -33.74717 | 18.41372 | 3683 ft | 269 kts | 18° |
| 2026-05-07 16:05 | -33.73139 | 18.42463 | 3320 ft | 267 kts | 46° |
| 2026-05-07 16:05 | -33.72046 | 18.44265 | 3045 ft | 262 kts | 62° |
| 2026-05-07 16:05 | -33.71277 | 18.46221 | 2982 ft | 258 kts | 76° |
| 2026-05-07 16:06 | -33.71241 | 18.48343 | 2994 ft | 256 kts | 105° |
| 2026-05-07 16:06 | -33.72012 | 18.50195 | 2991 ft | 247 kts | 128° |
| 2026-05-07 16:06 | -33.73103 | 18.51712 | 2983 ft | 234 kts | 133° |
| 2026-05-07 16:06 | -33.74329 | 18.52934 | 2982 ft | 220 kts | 151° |
| 2026-05-07 16:07 | -33.75701 | 18.53590 | 2979 ft | 207 kts | 164° |
| 2026-05-07 16:07 | -33.77070 | 18.54010 | 3000 ft | 205 kts | 165° |
| 2026-05-07 16:07 | -33.78447 | 18.54435 | 3013 ft | 200 kts | 165° |
| 2026-05-07 16:07 | -33.79764 | 18.54852 | 2994 ft | 195 kts | 164° |
| 2026-05-07 16:08 | -33.81080 | 18.55274 | 2993 ft | 194 kts | 164° |
| 2026-05-07 16:08 | -33.82330 | 18.55674 | 2972 ft | 177 kts | 164° |
| 2026-05-07 16:08 | -33.83491 | 18.56044 | 2850 ft | 172 kts | 164° |
| 2026-05-07 16:08 | -33.84646 | 18.56410 | 2612 ft | 171 kts | 165° |
| 2026-05-07 16:09 | -33.85785 | 18.56771 | 2360 ft | 167 kts | 165° |
| 2026-05-07 16:09 | -33.86860 | 18.57111 | 2131 ft | 153 kts | 166° |
| 2026-05-07 16:09 | -33.87850 | 18.57425 | 1905 ft | 141 kts | 166° |
| 2026-05-07 16:09 | -33.88773 | 18.57718 | 1725 ft | 135 kts | 167° |
| 2026-05-07 16:10 | -33.89682 | 18.58006 | 1535 ft | 135 kts | 168° |
| 2026-05-07 16:10 | -33.90588 | 18.58294 | 1350 ft | 135 kts | 168° |
| 2026-05-07 16:10 | -33.91493 | 18.58581 | 1158 ft | 134 kts | 168° |
| 2026-05-07 16:10 | -33.92394 | 18.58867 | 965 ft | 134 kts | 168° |
| 2026-05-07 16:11 | -33.93296 | 18.59153 | 777 ft | 134 kts | 168° |
| 2026-05-07 16:11 | -33.93891 | 18.59342 | 649 ft | 133 kts | 167° |
| 2026-05-07 16:11 | -33.95088 | 18.59727 | 396 ft | 134 kts | 167° |
| 2026-05-07 16:11 | -33.95686 | 18.59920 | 260 ft | 135 kts | 167° |
| 2026-05-07 16:12 | -33.96563 | 18.60187 | 162 ft | 121 kts | 166° |
| 2026-05-07 16:12 | -33.97194 | 18.60388 | 158 ft | 70 kts | 165° |
| 2026-05-07 16:12 | -33.97495 | 18.60484 | 156 ft | 24 kts | 165° |
| 2026-05-07 16:12 | -33.97647 | 18.60532 | 157 ft | 21 kts | 165° |
| 2026-05-07 16:13 | -33.97764 | 18.60568 | 158 ft | 6 kts | 173° |
| 2026-05-07 16:13 | -33.97784 | 18.60543 | 158 ft | 6 kts | 250° |
| 2026-05-07 16:13 | -33.97774 | 18.60436 | 158 ft | 18 kts | 284° |
| 2026-05-07 16:13 | -33.97742 | 18.60293 | 158 ft | 17 kts | 285° |
| 2026-05-07 16:14 | -33.97721 | 18.60211 | 158 ft | 8 kts | 297° |
| 2026-05-07 16:14 | -33.97644 | 18.60155 | 158 ft | 16 kts | 339° |
| 2026-05-07 16:14 | -33.97538 | 18.60105 | 158 ft | 17 kts | 338° |
| 2026-05-07 16:14 | -33.97455 | 18.60069 | 158 ft | 11 kts | 342° |
| 2026-05-07 16:15 | -33.97380 | 18.60042 | 158 ft | 11 kts | 344° |
| 2026-05-07 16:15 | -33.97306 | 18.60019 | 158 ft | 12 kts | 345° |
| 2026-05-07 16:15 | -33.97224 | 18.59993 | 158 ft | 12 kts | 346° |
| 2026-05-07 16:15 | -33.97139 | 18.59968 | 158 ft | 13 kts | 348° |
| 2026-05-07 16:16 | -33.97050 | 18.59948 | 158 ft | 13 kts | 347° |
| 2026-05-07 16:16 | -33.96972 | 18.59924 | 158 ft | 6 kts | 345° |
| 2026-05-07 16:16 | -33.96926 | 18.59909 | 158 ft | 7 kts | 345° |
| 2026-05-07 16:16 | -33.96875 | 18.59893 | 158 ft | 8 kts | 345° |
| 2026-05-07 16:17 | -33.96819 | 18.59874 | 158 ft | 9 kts | 345° |
| 2026-05-07 16:17 | -33.96759 | 18.59855 | 158 ft | 9 kts | 345° |
| 2026-05-07 16:17 | -33.96730 | 18.59858 | 158 ft | 1 kts | 44° |
| 2026-05-07 16:17 | -33.96730 | 18.59865 | 158 ft | 2 kts | 75° |
| 2026-05-07 16:18 | -33.96724 | 18.59892 | 158 ft | 4 kts | 75° |
| 2026-05-07 16:18 | -33.96716 | 18.59927 | 158 ft | 5 kts | 74° |
| 2026-05-07 16:18 | -33.96714 | 18.59935 | 158 ft | 0 kts | 75° |
| 2026-05-07 16:18 | -33.96714 | 18.59936 | 158 ft | 1 kts | 75° |
| 2026-05-07 16:19 | -33.96713 | 18.59938 | 158 ft | 0 kts | 75° |